Latest Weather Observations for Mount Isa

IDQ60801

Issued at 3:02 pm EST Sunday 24 May 2015 (issued every 30 minutes, with the page automatically refreshed every 10 minutes)

About weather observations | Map of weather stations | Latest weather observations for QLD | Other Formats
Station Details ID: 029127 Name: MOUNT ISA AERO Lat: -20.68 Lon: 139.49 Height: 340.3 m
Data from the previous 72 hours. | See also: Recent months at Mount Isa
Date/Time
EST
Temp
°C
App
Temp
°C
Dew
Point
Rel
Hum
%
Delta-T
°C
Wind Press
QNH
hPa
Press
MSL
hPa
Rain
since 9 am
mm
Dir
 
Spd
km/h
Gust
km/h
Spd
kts
Gust
kts
24/03:00pm 26.3 21.7 1.6 20 12.0 E 15 20 8 11 1018.6 - 0.0
24/02:30pm 25.4 21.5 1.2 20 11.6 E 11 20 6 11 1018.6 - 0.0
24/02:00pm 25.4 20.7 1.2 20 11.6 E 15 22 8 12 1018.7 - 0.0
24/01:30pm 25.2 19.1 0.4 19 11.7 ENE 22 30 12 16 1018.9 - 0.0
24/01:00pm 24.1 17.8 1.4 22 10.8 E 24 30 13 16 1019.7 - 0.0
24/12:30pm 24.9 18.8 0.5 20 11.5 ENE 22 32 12 17 1019.8 - 0.0
24/12:00pm 24.6 18.1 0.6 20 11.3 ENE 24 30 13 16 1020.0 1018.9 0.0
24/11:30am 24.0 18.7 1.6 23 10.7 ENE 19 30 10 16 1020.5 - 0.0
24/10:30am 22.1 15.5 2.1 26 9.5 E 26 37 14 20 1021.0 - 0.0
24/10:00am 21.2 15.1 2.5 29 8.9 E 24 39 13 21 1021.3 - 0.0
24/09:30am 20.2 14.8 2.7 31 8.3 E 20 32 11 17 1021.3 - 0.0
24/09:00am 19.0 13.8 2.2 32 7.8 ESE 19 26 10 14 1021.3 1020.1 0.0
24/08:30am 18.3 13.4 2.3 34 7.4 E 17 26 9 14 1020.8 - 0.0
24/08:00am 17.0 12.6 2.7 38 6.6 E 15 19 8 10 1020.5 - 0.0
24/07:30am 14.8 11.1 2.1 42 5.7 ESE 11 13 6 7 1020.1 - 0.0
24/07:00am 15.0 11.2 1.8 41 5.9 ESE 11 15 6 8 1019.9 - 0.0
24/06:30am 15.1 11.3 1.6 40 6.0 E 11 13 6 7 1019.4 - 0.0
24/05:30am 12.8 9.4 1.6 46 4.9 ESE 9 11 5 6 1019.0 - 0.0
24/05:00am 14.0 10.0 0.5 39 5.8 SE 11 15 6 8 1019.0 - 0.0
24/04:30am 14.3 10.3 0.3 38 6.0 SE 11 15 6 8 1019.4 - 0.0
24/04:00am 14.4 10.3 -0.5 36 6.3 SSE 11 15 6 8 1019.6 - 0.0
24/03:30am 9.9 5.9 0.2 51 4.0 SSE 11 13 6 7 1019.7 - 0.0
24/03:00am 11.3 7.7 0.6 47 4.5 SSE 9 11 5 6 1019.9 1018.8 0.0
24/02:30am 9.7 5.6 -0.5 49 4.1 SSE 11 13 6 7 1020.5 - 0.0
24/02:00am 11.2 7.1 0.1 46 4.6 SE 11 13 6 7 1020.5 - 0.0
24/01:30am 15.5 12.3 1.0 37 6.4 SSE 7 9 4 5 1020.8 - 0.0
24/01:00am 16.1 12.0 -0.4 32 7.1 SE 11 15 6 8 1020.6 - 0.0
24/12:30am 17.1 12.4 -1.5 28 7.9 SE 13 17 7 9 1020.8 - 0.0
24/12:00am 16.7 12.1 -1.2 29 7.6 SE 13 17 7 9 1021.1 1019.9 0.0
 
Date/Time
EST
Temp
°C
App
Temp
°C
Dew
Point
Rel
Hum
%
Delta-T
°C
Wind Press
QNH
hPa
Press
MSL
hPa
Rain
since 9 am
mm
Dir
 
Spd
km/h
Gust
km/h
Spd
kts
Gust
kts
23/11:30pm 12.7 8.4 -1.3 38 5.7 SE 11 15 6 8 1020.9 - 0.0
23/11:00pm 11.9 9.4 -1.2 40 5.3 SSE 2 7 1 4 1020.9 - 0.0
23/10:30pm 13.7 10.9 -0.6 37 6.0 S 4 7 2 4 1020.8 - 0.0
23/10:00pm 16.3 11.8 -3.1 26 7.9 SSE 11 15 6 8 1020.7 - 0.0
23/09:30pm 16.7 12.2 -3.6 24 8.2 S 11 13 6 7 1020.8 - 0.0
23/09:00pm 16.7 12.0 -1.5 29 7.7 SSE 13 17 7 9 1020.7 1019.5 0.0
23/08:30pm 17.4 12.9 -0.6 29 7.8 SSE 13 19 7 10 1020.5 - 0.0
23/08:00pm 18.6 13.7 -3.4 22 9.1 S 13 13 7 7 1020.2 - 0.0
23/07:30pm 19.0 14.1 -3.8 21 9.4 S 13 13 7 7 1020.1 - 0.0
23/07:00pm 19.6 15.0 -4.3 19 9.8 SSE 11 15 6 8 1019.7 - 0.0
23/06:30pm 19.8 15.0 -2.5 22 9.5 SSE 13 17 7 9 1019.5 - 0.0
23/06:00pm 21.2 15.9 -3.7 18 10.5 SE 15 20 8 11 1019.2 1018.0 0.0
23/05:30pm 22.5 16.7 -4.3 16 11.3 SE 17 26 9 14 1019.2 - 0.0
23/05:00pm 23.0 17.5 -5.0 15 11.7 SSE 15 20 8 11 1018.9 - 0.0
23/04:30pm 23.5 17.4 -7.4 12 12.4 SE 17 26 9 14 1018.7 - 0.0
23/04:00pm 23.6 17.7 -6.0 13 12.2 SE 17 26 9 14 1018.8 - 0.0
23/03:30pm 23.3 15.9 -6.9 13 12.2 E 24 30 13 16 1018.9 - 0.0
23/03:00pm 23.3 16.9 -5.2 14 11.9 ESE 20 26 11 14 1019.1 1017.9 0.0
23/02:30pm 23.1 16.7 -4.7 15 11.7 SSE 20 30 11 16 1019.6 - 0.0
23/02:00pm 22.3 16.6 -3.4 17 11.0 ESE 17 24 9 13 1019.9 - 0.0
23/01:30pm 21.5 15.6 -0.5 23 9.9 ESE 20 28 11 15 1020.5 - 0.0
23/01:00pm 21.0 15.3 -0.4 24 9.6 ESE 19 26 10 14 1021.0 - 0.0
23/12:30pm 20.3 13.7 -0.3 25 9.2 SE 24 32 13 17 1021.4 - 0.0
23/12:00pm 19.7 14.3 1.1 29 8.5 ESE 19 28 10 15 1022.2 1021.1 0.0
23/11:30am 18.7 13.3 1.0 30 8.0 SE 19 28 10 15 1022.8 - 0.0
23/11:00am 18.1 12.7 2.3 34 7.3 SE 20 33 11 18 1023.1 - 0.0
23/10:30am 17.4 10.8 2.1 36 7.0 ESE 26 33 14 18 1023.3 - 0.0
23/10:00am 16.7 10.6 2.8 39 6.4 ESE 24 35 13 19 1023.4 - 0.0
23/09:30am 15.3 10.0 2.8 43 5.7 SE 20 28 11 15 1023.7 - 0.0
23/09:00am 14.9 9.2 2.8 44 5.5 ESE 22 30 12 16 1023.6 1022.4 0.0
23/08:30am 14.2 9.8 2.7 46 5.2 SE 15 26 8 14 1023.3 - 0.0
23/08:00am 13.1 9.0 2.0 47 4.9 SE 13 17 7 9 1023.0 - 0.0
23/07:30am 11.7 7.5 1.5 49 4.4 SSE 13 15 7 8 1022.7 - 0.0
23/07:00am 11.2 7.3 1.0 49 4.3 SE 11 15 6 8 1022.5 - 0.0
23/06:30am 11.7 7.7 0.8 47 4.6 SSE 11 15 6 8 1022.2 - 0.0
23/06:00am 11.9 7.5 0.5 45 4.8 SE 13 19 7 10 1022.0 1020.9 0.0
23/05:30am 12.0 6.8 0.0 43 5.0 SE 17 24 9 13 1021.9 - 0.0
23/05:00am 12.6 7.7 -0.7 40 5.5 SE 15 19 8 10 1021.9 - 0.0
23/04:30am 13.2 7.8 -1.1 37 5.9 SE 17 24 9 13 1021.7 - 0.0
23/04:00am 13.2 7.3 -0.8 38 5.8 SE 20 32 11 17 1021.7 - 0.0
23/03:30am 13.0 8.5 -0.4 39 5.6 SE 13 26 7 14 1021.8 - 0.0
23/03:00am 12.4 7.8 -0.7 40 5.4 S 13 15 7 8 1022.2 1021.1 0.0
23/02:30am 12.4 7.4 -1.4 38 5.6 S 15 17 8 9 1022.3 - 0.0
23/02:00am 12.4 7.8 -1.4 38 5.6 S 13 17 7 9 1022.5 - 0.0
23/01:30am 12.8 8.5 -1.8 36 5.9 S 11 13 6 7 1022.7 - 0.0
23/01:00am 12.7 8.4 -2.0 36 5.9 S 11 13 6 7 1022.8 - 0.0
23/12:30am 12.6 8.3 -1.8 36 5.8 S 11 13 6 7 1022.9 - 0.0
23/12:00am 13.2 8.9 -1.9 35 6.1 S 11 13 6 7 1023.0 1021.9 0.0
 
Date/Time
EST
Temp
°C
App
Temp
°C
Dew
Point
Rel
Hum
%
Delta-T
°C
Wind Press
QNH
hPa
Press
MSL
hPa
Rain
since 9 am
mm
Dir
 
Spd
km/h
Gust
km/h
Spd
kts
Gust
kts
22/11:30pm 14.1 9.2 -3.4 29 6.9 S 13 15 7 8 1023.3 - 0.0
22/11:00pm 14.8 9.9 -3.7 27 7.3 S 13 17 7 9 1023.3 - 0.0
22/10:30pm 15.1 9.8 -3.9 26 7.5 SSE 15 19 8 10 1023.0 - 0.0
22/10:00pm 15.9 9.6 -5.4 22 8.2 SSE 19 26 10 14 1023.2 - 0.0
22/09:30pm 16.4 10.2 -5.2 22 8.4 SSE 19 26 10 14 1023.4 - 0.0
22/09:00pm 16.6 10.2 -5.2 22 8.5 SSE 20 28 11 15 1023.4 1022.3 0.0
22/08:30pm 17.0 12.7 -5.2 21 8.7 S 9 13 5 7 1023.1 - 0.0
22/08:00pm 16.5 12.0 -3.2 26 8.0 SSE 11 15 6 8 1022.9 - 0.0
22/07:30pm 17.6 12.2 -4.8 21 8.9 SSE 15 20 8 11 1022.5 - 0.0
22/07:00pm 18.2 11.8 -5.3 20 9.3 SSE 20 28 11 15 1022.1 - 0.0
22/06:30pm 19.0 12.7 -5.8 18 9.8 SSE 19 28 10 15 1021.8 - 0.0
22/06:00pm 19.6 13.2 -5.3 18 10.0 SSE 20 30 11 16 1021.5 1020.3 0.0
22/05:30pm 20.4 13.8 -6.9 15 10.7 SSE 20 28 11 15 1021.2 - 0.0
22/05:00pm 21.2 13.7 -8.6 13 11.4 SSE 24 32 13 17 1021.3 - 0.0
22/04:30pm 21.6 14.4 -9.3 12 11.7 SSE 22 30 12 16 1021.3 - 0.0
22/04:00pm 21.7 13.5 -8.3 12 11.6 SSE 28 35 15 19 1021.2 - 0.0
22/03:30pm 22.3 15.5 -8.9 11 12.0 S 20 32 11 17 1021.2 - 0.0
22/03:00pm 22.2 14.7 -8.0 12 11.8 SSE 24 35 13 19 1021.5 1020.3 0.0
22/02:30pm 22.0 15.4 -6.8 14 11.5 SE 20 30 11 16 1021.6 - 0.0
22/02:00pm 22.3 15.3 -7.1 13 11.7 SE 22 32 12 17 1021.8 - 0.0
22/01:30pm 21.0 14.7 -5.8 16 10.8 S 19 26 10 14 1022.5 - 0.0
22/01:00pm 20.5 13.7 -5.1 17 10.4 SSE 22 33 12 18 1023.0 - 0.0
22/12:30pm 20.2 13.8 -4.8 18 10.2 SSE 20 32 11 17 1023.4 - 0.0
22/12:00pm 19.5 13.4 -2.4 22 9.3 SE 20 32 11 17 1024.0 1022.8 0.0
22/11:30am 18.4 11.6 -1.8 25 8.6 SSE 24 32 13 17 1024.6 - 0.0
22/11:00am 17.8 11.2 -0.3 29 7.9 SSE 24 32 13 17 1025.1 - 0.0
22/10:30am 16.4 10.0 1.1 35 6.8 ESE 24 33 13 18 1025.6 - 0.0
22/10:00am 16.0 9.8 2.0 39 6.3 SE 24 32 13 17 1025.7 - 0.0
22/09:30am 15.2 8.3 2.3 42 5.8 SE 28 41 15 22 1025.4 - 0.0
22/09:00am 14.5 8.4 2.8 45 5.3 SE 24 33 13 18 1025.1 1024.0 0.0
22/08:30am 14.1 7.7 3.1 47 5.0 SSE 26 39 14 21 1024.7 - 0.0
22/08:00am 13.3 6.9 3.1 50 4.6 SSE 26 39 14 21 1024.2 - 0.0
22/07:30am 12.7 6.7 3.4 53 4.2 SSE 24 32 13 17 1023.9 - 0.0
22/07:00am 12.8 7.6 3.3 52 4.3 SSE 20 32 11 17 1023.6 - 0.0
22/06:30am 13.0 7.9 3.3 51 4.4 SSE 19 28 10 15 1023.2 - 0.0
22/06:00am 13.3 7.3 3.4 51 4.5 SSE 24 32 13 17 1023.1 1022.0 0.0
22/05:30am 13.5 7.9 3.7 51 4.5 SSE 22 35 12 19 1023.0 - 0.0
22/05:00am 13.7 8.7 3.7 51 4.6 SSE 19 30 10 16 1022.9 - 0.0
22/04:30am 13.9 8.9 3.7 50 4.7 SSE 19 28 10 15 1022.9 - 0.0
22/04:00am 14.2 8.2 3.5 48 4.9 SSE 24 32 13 17 1022.7 - 0.0
22/03:30am 14.6 8.6 3.3 46 5.2 SSE 24 37 13 20 1022.7 - 0.0
22/03:00am 15.0 7.4 2.7 43 5.6 SSE 32 41 17 22 1022.6 1021.5 0.0
22/02:30am 15.6 9.1 2.4 41 6.0 SSE 26 35 14 19 1022.8 - 0.0
22/02:00am 16.1 8.8 2.2 39 6.3 S 30 39 16 21 1022.6 - 0.0
22/01:30am 16.7 9.9 3.2 40 6.3 S 28 37 15 20 1022.8 - 0.0
22/01:00am 17.3 10.9 5.2 45 5.9 S 28 37 15 20 1022.9 - 0.0
22/12:30am 17.8 11.9 5.9 45 5.9 S 26 33 14 18 1022.8 - 0.0
22/12:00am 18.3 12.0 5.8 44 6.2 S 28 35 15 19 1023.1 1022.0 0.0
 
Date/Time
EST
Temp
°C
App
Temp
°C
Dew
Point
Rel
Hum
%
Delta-T
°C
Wind Press
QNH
hPa
Press
MSL
hPa
Rain
since 9 am
mm
Dir
 
Spd
km/h
Gust
km/h
Spd
kts
Gust
kts
21/11:30pm 18.8 12.2 6.0 43 6.4 S 30 39 16 21 1023.1 - 0.0
21/11:00pm 19.2 13.3 5.8 41 6.7 SSE 26 33 14 18 1023.2 - 0.0
21/10:30pm 19.7 14.5 5.4 39 7.1 SSE 22 35 12 19 1023.1 - 0.0
21/10:00pm 20.0 12.7 5.6 39 7.2 S 33 48 18 26 1023.0 - 0.0
21/09:56pm 20.1 13.0 5.5 38 7.3 S 32 48 17 26 1023.0 - 0.0
21/09:30pm 20.4 15.5 5.1 36 7.6 S 20 30 11 16 1022.9 - 0.0
21/09:00pm 20.7 15.0 5.0 35 7.8 S 24 33 13 18 1022.8 1021.7 0.0
21/08:30pm 20.8 15.2 5.4 36 7.7 SSE 24 33 13 18 1022.4 - 0.0
21/08:00pm 21.1 14.1 5.9 37 7.7 S 32 37 17 20 1022.1 - 0.0
21/07:30pm 21.4 14.4 5.8 36 7.9 S 32 46 17 25 1021.8 - 0.0
21/07:00pm 21.6 16.6 6.4 37 7.8 SSE 22 32 12 17 1021.5 - 0.0
21/06:30pm 22.2 16.9 6.8 37 8.0 S 24 33 13 18 1021.2 - 0.0
21/06:00pm 22.7 16.8 5.9 33 8.6 SSE 26 37 14 20 1020.8 1019.6 0.0
21/05:30pm 23.1 16.7 5.4 31 9.0 S 28 37 15 20 1020.5 - 0.0
21/05:00pm 24.0 17.3 5.8 31 9.4 SSE 30 39 16 21 1020.1 - 0.0
21/04:30pm 24.5 17.4 6.3 31 9.5 S 33 41 18 22 1019.9 - 0.0
21/04:00pm 25.5 19.3 6.0 28 10.2 SSE 28 37 15 20 1019.6 - 0.0
21/03:30pm 25.9 19.6 5.5 27 10.6 S 28 37 15 20 1019.5 - 0.0

Other Formats:

Comma delimited format used in spreadsheet applications
http://www.bom.gov.au/fwo/IDQ60801/IDQ60801.94332.axf

JavaScript Object Notation format (JSON) in row-major order
http://www.bom.gov.au/fwo/IDQ60801/IDQ60801.94332.json